Time;durP1;ratioP1;P1;durP2;ratioP2;P2;SDS_P1;SDS_P2;PMS_P1;PMS_P2;Temp;Humidity;BMP_temperature;BMP_pressure;BME280_temperature;BME280_humidity;BME280_pressure;Samples;Min_cycle;Max_cycle;Signal;HPM_P1;HPM_P2
2021/05/28 00:01:12;;;;;;;29.03;20.47;;;8.60;99.90;;;;;;5032290;28;20574;-65
2021/05/28 00:03:37;;;;;;;23.43;18.77;;;8.60;99.90;;;;;;5051145;28;20259;-66
2021/05/28 00:06:03;;;;;;;24.87;20.37;;;8.60;99.90;;;;;;5051085;28;20539;-64
2021/05/28 00:08:29;;;;;;;22.67;20.33;;;8.50;99.90;;;;;;5050695;28;20182;-66
2021/05/28 00:10:54;;;;;;;30.47;20.30;;;8.50;99.90;;;;;;5050849;28;20182;-65
2021/05/28 00:13:20;;;;;;;27.67;19.43;;;8.60;99.90;;;;;;5034572;28;20214;-66
2021/05/28 00:15:46;;;;;;;22.53;19.30;;;8.60;99.90;;;;;;5035009;28;20648;-65
2021/05/28 00:18:11;;;;;;;28.37;21.00;;;8.60;99.90;;;;;;5051063;28;20179;-66
2021/05/28 00:20:37;;;;;;;27.27;21.40;;;8.60;99.90;;;;;;5054679;28;20170;-66
2021/05/28 00:23:03;;;;;;;37.27;22.77;;;8.60;99.90;;;;;;5040263;28;20218;-66
2021/05/28 00:25:29;;;;;;;24.43;20.47;;;8.60;99.90;;;;;;5035264;28;20175;-66
2021/05/28 00:27:55;;;;;;;27.67;20.67;;;8.80;99.90;;;;;;5047441;28;20187;-66
2021/05/28 00:30:21;;;;;;;23.63;21.10;;;8.80;99.90;;;;;;5054686;28;20550;-65
2021/05/28 00:32:47;;;;;;;25.83;21.63;;;8.90;99.90;;;;;;5052858;28;20214;-66
2021/05/28 00:35:13;;;;;;;28.20;22.67;;;9.00;99.90;;;;;;5054826;28;20178;-65
2021/05/28 00:37:39;;;;;;;29.33;22.20;;;9.10;99.90;;;;;;5044981;28;20184;-65
2021/05/28 00:40:05;;;;;;;28.20;21.57;;;9.30;99.90;;;;;;5034804;28;20630;-66
2021/05/28 00:42:32;;;;;;;23.73;20.73;;;9.30;99.90;;;;;;5041932;28;20685;-65
2021/05/28 00:44:57;;;;;;;29.20;21.00;;;9.40;99.90;;;;;;5054651;28;20206;-66
2021/05/28 00:47:23;;;;;;;29.43;22.27;;;9.50;99.90;;;;;;5048470;28;20207;-66
2021/05/28 00:49:49;;;;;;;24.63;21.33;;;9.40;99.90;;;;;;5034089;28;20660;-66
2021/05/28 00:52:14;;;;;;;26.13;21.10;;;9.50;99.90;;;;;;5038019;28;20229;-66
2021/05/28 00:54:41;;;;;;;29.70;21.00;;;9.50;99.90;;;;;;5054418;28;20257;-66
2021/05/28 00:57:07;;;;;;;36.33;21.27;;;9.50;99.90;;;;;;5052001;28;20635;-67
2021/05/28 00:59:33;;;;;;;23.27;19.37;;;9.50;99.90;;;;;;5034523;28;20172;-65
2021/05/28 01:01:58;;;;;;;21.87;19.53;;;9.50;99.90;;;;;;5034110;28;20197;-66
2021/05/28 01:04:24;;;;;;;27.23;20.53;;;9.50;99.90;;;;;;5054458;28;20202;-66
2021/05/28 01:06:50;;;;;;;23.33;19.43;;;9.50;99.90;;;;;;5044258;28;20191;-66
2021/05/28 01:09:16;;;;;;;26.70;20.17;;;9.50;99.90;;;;;;5034181;28;20649;-65
2021/05/28 01:11:42;;;;;;;26.67;19.77;;;9.50;99.90;;;;;;5041232;28;20567;-65
2021/05/28 01:14:07;;;;;;;28.60;20.30;;;9.40;99.90;;;;;;5053908;28;20201;-66
2021/05/28 01:16:34;;;;;;;27.10;20.27;;;9.60;99.90;;;;;;5047844;28;20175;-65
2021/05/28 01:19:00;;;;;;;22.70;20.53;;;9.50;99.90;;;;;;5034066;28;20586;-66
2021/05/28 01:21:26;;;;;;;27.63;19.07;;;9.60;99.90;;;;;;5038830;28;20186;-65
2021/05/28 01:23:52;;;;;;;25.00;18.53;;;9.60;99.90;;;;;;5053267;28;20590;-65
2021/05/28 01:26:18;;;;;;;28.97;18.93;;;9.60;99.90;;;;;;5045567;28;20186;-66
2021/05/28 01:28:44;;;;;;;28.17;20.40;;;9.40;99.90;;;;;;5032498;28;20176;-65
2021/05/28 01:31:09;;;;;;;24.97;19.33;;;9.40;99.90;;;;;;5038690;28;20540;-66
2021/05/28 01:33:39;;;;;;;23.20;19.13;;;9.40;99.90;;;;;;5037167;28;20211;-63
2021/05/28 01:36:05;;;;;;;28.20;19.63;;;9.40;99.90;;;;;;5037735;28;20186;-67
2021/05/28 01:38:31;;;;;;;21.83;18.57;;;9.30;99.90;;;;;;5053493;28;20177;-66
2021/05/28 01:40:57;;;;;;;26.97;19.93;;;9.20;99.90;;;;;;5050737;28;20183;-65
2021/05/28 01:43:22;;;;;;;28.07;20.20;;;9.10;99.90;;;;;;5033555;28;20270;-66
2021/05/28 01:45:48;;;;;;;26.27;20.37;;;8.90;99.90;;;;;;5033482;28;20203;-65
2021/05/28 01:48:13;;;;;;;30.50;20.73;;;8.80;99.90;;;;;;5053442;28;20167;-66
2021/05/28 01:50:45;;;;;;;30.33;20.93;;;8.70;99.90;;;;;;5052948;28;20171;-65
2021/05/28 01:53:13;;;;;;;28.17;19.60;;;8.60;99.90;;;;;;5033661;28;20257;-66
2021/05/28 01:55:38;;;;;;;31.07;22.57;;;8.50;99.90;;;;;;5033144;28;20609;-65
2021/05/28 01:58:16;;;;;;;26.50;22.37;;;8.40;99.90;;;;;;5049588;28;20270;-66
2021/05/28 02:00:42;;;;;;;32.70;25.03;;;8.40;99.90;;;;;;5052787;28;20263;-66
2021/05/28 02:03:08;;;;;;;27.40;23.87;;;8.30;99.90;;;;;;5035300;28;20247;-66
2021/05/28 02:05:35;;;;;;;29.97;24.13;;;8.20;99.90;;;;;;5033143;28;20180;-66
2021/05/28 02:08:01;;;;;;;42.00;24.93;;;8.20;99.90;;;;;;5048798;28;20179;-65
2021/05/28 02:10:29;;;;;;;36.23;26.80;;;8.10;99.90;;;;;;5052739;28;20178;-65
2021/05/28 02:12:54;;;;;;;37.87;27.03;;;8.10;99.90;;;;;;5038269;28;20704;-65
2021/05/28 02:15:20;;;;;;;36.67;26.63;;;8.00;99.90;;;;;;5032944;28;20175;-66
2021/05/28 02:17:46;;;;;;;43.40;28.83;;;8.00;99.90;;;;;;5045055;28;20218;-66
2021/05/28 02:20:12;;;;;;;40.33;26.53;;;7.90;99.90;;;;;;5052557;28;20257;-66
2021/05/28 02:22:38;;;;;;;36.00;27.20;;;7.80;99.90;;;;;;5041576;28;20222;-66
2021/05/28 02:25:05;;;;;;;43.90;27.53;;;7.80;99.90;;;;;;5032821;28;20179;-66
2021/05/28 02:27:32;;;;;;;55.13;28.50;;;7.80;99.90;;;;;;5033726;28;20199;-65
2021/05/28 02:29:57;;;;;;;45.70;29.13;;;7.80;99.90;;;;;;5032315;28;20179;-65
2021/05/28 02:32:23;;;;;;;39.33;27.83;;;7.70;99.90;;;;;;5039654;28;20229;-65
2021/05/28 02:34:49;;;;;;;44.60;29.67;;;7.70;99.90;;;;;;5052433;28;20167;-66
2021/05/28 02:37:14;;;;;;;43.27;29.13;;;7.70;99.90;;;;;;5046635;28;20176;-65
2021/05/28 02:39:40;;;;;;;42.50;32.27;;;7.70;99.90;;;;;;5032486;28;20179;-66
2021/05/28 02:42:06;;;;;;;47.77;32.30;;;7.60;99.90;;;;;;5035651;28;20262;-65
2021/05/28 02:44:32;;;;;;;49.73;34.27;;;7.50;99.90;;;;;;5052253;28;20232;-65
2021/05/28 02:46:57;;;;;;;48.80;32.83;;;7.50;99.90;;;;;;5050248;28;20266;-66
2021/05/28 02:49:23;;;;;;;55.60;35.23;;;7.60;99.90;;;;;;5032412;28;20496;-66
2021/05/28 02:51:49;;;;;;;49.90;32.10;;;7.50;99.90;;;;;;5031595;28;20198;-65
2021/05/28 02:54:14;;;;;;;52.80;31.93;;;7.50;99.90;;;;;;5051920;28;20224;-65
2021/05/28 02:56:40;;;;;;;48.17;34.17;;;7.50;99.90;;;;;;5052050;28;20178;-65
2021/05/28 02:59:05;;;;;;;48.07;31.43;;;7.40;99.90;;;;;;5033914;28;20202;-67
2021/05/28 03:01:32;;;;;;;45.67;30.93;;;7.30;99.90;;;;;;5031747;28;20182;-66
2021/05/28 03:03:57;;;;;;;48.87;32.90;;;7.30;99.90;;;;;;5047893;28;20679;-66
2021/05/28 03:06:23;;;;;;;48.20;32.00;;;7.30;99.90;;;;;;5042569;28;20267;-66
2021/05/28 03:08:49;;;;;;;51.63;32.40;;;7.20;99.90;;;;;;5030608;28;20184;-65
2021/05/28 03:11:14;;;;;;;48.60;31.73;;;7.20;99.90;;;;;;5039339;28;20194;-66
2021/05/28 03:13:40;;;;;;;61.77;34.97;;;7.20;99.90;;;;;;5051506;28;20257;-65
2021/05/28 03:16:06;;;;;;;54.50;34.23;;;7.20;99.90;;;;;;5045662;28;20183;-65
2021/05/28 03:18:52;;;;;;;59.63;35.90;;;7.20;99.90;;;;;;5031754;28;20176;-66
2021/05/28 03:21:24;;;;;;;59.87;36.17;;;7.20;99.90;;;;;;5035027;28;20541;-66
2021/05/28 03:23:51;;;;;;;67.53;38.87;;;7.30;99.90;;;;;;5031484;28;20207;-66
2021/05/28 03:26:18;;;;;;;57.73;38.20;;;7.30;99.90;;;;;;5037855;28;20274;-66
2021/05/28 03:28:43;;;;;;;54.73;38.30;;;7.30;99.90;;;;;;5051549;28;20171;-66
2021/05/28 03:31:09;;;;;;;68.03;40.30;;;7.30;99.90;;;;;;5046719;28;20542;-65
2021/05/28 03:33:35;;;;;;;64.80;40.53;;;7.30;99.90;;;;;;5031352;28;20211;-63
2021/05/28 03:36:01;;;;;;;69.43;41.13;;;7.40;99.90;;;;;;5043354;28;20187;-65
2021/05/28 03:38:27;;;;;;;69.07;41.07;;;7.40;99.90;;;;;;5051489;28;20167;-66
2021/05/28 03:40:53;;;;;;;74.03;43.63;;;7.40;99.90;;;;;;5040893;28;20430;-66
2021/05/28 03:43:19;;;;;;;84.80;46.07;;;7.40;99.90;;;;;;5031397;28;20203;-65
2021/05/28 03:45:44;;;;;;;86.40;48.37;;;7.40;99.90;;;;;;5039258;28;20206;-65
2021/05/28 03:48:10;;;;;;;99.13;57.37;;;7.40;99.90;;;;;;5051091;28;20186;-65
2021/05/28 03:50:35;;;;;;;107.50;52.43;;;7.40;99.90;;;;;;5044440;28;20194;-65
2021/05/28 03:53:01;;;;;;;98.67;53.57;;;7.40;99.90;;;;;;5031344;28;20363;-65
2021/05/28 03:55:27;;;;;;;92.60;58.03;;;7.50;99.90;;;;;;5035689;28;20258;-65
2021/05/28 03:57:52;;;;;;;98.27;54.93;;;7.50;99.90;;;;;;5051095;28;20592;-66
2021/05/28 04:00:19;;;;;;;101.67;54.47;;;7.50;99.90;;;;;;5048114;28;20691;-65
2021/05/28 04:02:44;;;;;;;88.83;54.30;;;7.60;99.90;;;;;;5031282;28;20195;-66
2021/05/28 04:05:11;;;;;;;97.33;52.13;;;7.60;99.90;;;;;;5031931;28;20241;-65
2021/05/28 04:07:37;;;;;;;90.10;51.07;;;7.70;99.90;;;;;;5051170;28;20236;-63
2021/05/28 04:10:03;;;;;;;91.60;49.70;;;7.70;99.90;;;;;;5050885;28;20224;-66
2021/05/28 04:12:29;;;;;;;77.20;48.67;;;7.80;99.90;;;;;;5031629;28;20245;-65
2021/05/28 04:14:55;;;;;;;87.13;50.50;;;7.80;99.90;;;;;;5031440;28;20648;-65
2021/05/28 04:17:20;;;;;;;80.07;50.73;;;7.80;99.90;;;;;;5048330;28;20187;-67
2021/05/28 04:19:46;;;;;;;95.43;53.00;;;7.90;99.90;;;;;;5050584;28;20201;-65
2021/05/28 04:22:12;;;;;;;96.20;54.70;;;7.90;99.90;;;;;;5035830;28;20250;-65
2021/05/28 04:24:38;;;;;;;97.03;56.03;;;7.90;99.90;;;;;;5031214;28;20214;-66
2021/05/28 04:27:04;;;;;;;102.20;59.57;;;8.10;99.90;;;;;;5044520;28;20527;-67
2021/05/28 04:29:29;;;;;;;113.30;60.67;;;8.20;99.90;;;;;;5050949;28;20221;-65
2021/05/28 04:31:55;;;;;;;96.70;57.50;;;8.30;99.90;;;;;;5038403;28;20207;-66
2021/05/28 04:34:21;;;;;;;95.37;55.00;;;8.30;99.90;;;;;;5031114;28;20175;-65
2021/05/28 04:36:46;;;;;;;99.17;57.67;;;8.30;99.90;;;;;;5040648;28;20182;-66
2021/05/28 04:39:12;;;;;;;93.43;55.60;;;8.40;99.90;;;;;;5051115;28;20349;-66
2021/05/28 04:41:38;;;;;;;105.97;68.03;;;8.50;99.90;;;;;;5042293;28;20207;-66
2021/05/28 04:44:04;;;;;;;108.27;75.40;;;8.60;99.90;;;;;;5031078;28;20269;-66
2021/05/28 04:46:29;;;;;;;103.03;61.40;;;8.80;99.90;;;;;;5036957;28;20206;-66
2021/05/28 04:48:55;;;;;;;106.67;62.90;;;8.90;99.90;;;;;;5050770;28;20386;-66
2021/05/28 04:51:20;;;;;;;106.03;67.17;;;9.10;99.90;;;;;;5046003;28;20207;-67
2021/05/28 04:53:46;;;;;;;101.87;62.23;;;9.30;99.90;;;;;;5030495;28;20219;-66
2021/05/28 04:56:12;;;;;;;113.90;69.53;;;9.40;99.90;;;;;;5033056;28;20488;-66
2021/05/28 04:58:37;;;;;;;97.73;68.40;;;9.60;99.90;;;;;;5050749;28;20616;-66
2021/05/28 05:01:03;;;;;;;99.23;64.87;;;9.90;99.90;;;;;;5052151;28;20542;-66
2021/05/28 05:03:28;;;;;;;95.33;62.20;;;10.00;99.90;;;;;;5034321;28;20281;-66
2021/05/28 05:05:54;;;;;;;92.40;58.07;;;10.00;99.90;;;;;;5044740;28;20194;-66
2021/05/28 05:08:20;;;;;;;80.67;57.60;;;10.00;99.90;;;;;;5054222;28;20181;-65
2021/05/28 05:10:45;;;;;;;68.17;53.40;;;10.20;99.90;;;;;;5044592;28;20191;-65
2021/05/28 05:13:12;;;;;;;70.87;53.87;;;10.40;99.90;;;;;;5034057;28;20207;-67
2021/05/28 05:15:38;;;;;;;66.53;50.33;;;10.50;99.90;;;;;;5041171;28;20194;-66
2021/05/28 05:18:06;;;;;;;66.13;56.03;;;10.60;99.90;;;;;;5053966;28;20167;-65
2021/05/28 05:20:32;;;;;;;61.33;50.37;;;10.80;99.90;;;;;;5048073;28;20345;-66
2021/05/28 05:22:57;;;;;;;47.70;42.50;;;11.10;99.90;;;;;;5033933;28;20314;-66
2021/05/28 05:25:23;;;;;;;46.60;38.30;;;11.30;99.90;;;;;;5036361;28;20273;-66
2021/05/28 05:27:48;;;;;;;46.30;37.83;;;11.50;99.90;;;;;;5053514;28;20204;-66
2021/05/28 05:30:14;;;;;;;41.27;34.40;;;11.60;99.90;;;;;;5051462;28;20175;-65
2021/05/28 05:32:40;;;;;;;40.60;35.30;;;11.70;99.90;;;;;;5033486;28;20218;-67
2021/05/28 05:35:06;;;;;;;36.60;32.93;;;12.10;99.90;;;;;;5033810;28;20175;-67
2021/05/28 05:37:32;;;;;;;36.87;32.97;;;12.30;99.90;;;;;;5053589;28;20213;-67
2021/05/28 05:39:58;;;;;;;33.33;29.33;;;12.40;99.90;;;;;;5053153;28;20210;-66
2021/05/28 05:42:23;;;;;;;34.80;27.93;;;12.50;99.90;;;;;;5033698;28;20210;-66
2021/05/28 05:44:49;;;;;;;28.33;25.33;;;12.40;99.90;;;;;;5033422;28;20557;-66
2021/05/28 05:47:14;;;;;;;27.60;24.20;;;12.50;99.90;;;;;;5049815;28;20214;-66
2021/05/28 05:49:40;;;;;;;28.53;24.27;;;12.80;99.90;;;;;;5053182;28;20202;-67
2021/05/28 05:52:06;;;;;;;26.73;23.10;;;12.90;99.90;;;;;;5038077;28;20547;-66
2021/05/28 05:54:32;;;;;;;28.57;22.40;;;13.00;99.90;;;;;;5033250;28;20549;-66
2021/05/28 05:56:58;;;;;;;23.80;21.50;;;13.00;99.90;;;;;;5045676;28;20194;-66
2021/05/28 05:59:24;;;;;;;22.60;19.90;;;13.00;99.90;;;;;;5051664;28;20170;-66
2021/05/28 06:01:50;;;;;;;24.53;20.83;;;13.20;99.90;;;;;;5047715;28;20193;-66
2021/05/28 06:04:16;;;;;;;24.90;20.80;;;13.10;99.90;;;;;;5053367;28;20175;-66
2021/05/28 06:06:42;;;;;;;24.77;22.03;;;13.00;99.90;;;;;;5052652;28;20621;-66
2021/05/28 06:09:07;;;;;;;29.33;21.00;;;13.00;99.90;;;;;;5053103;28;20210;-66
2021/05/28 06:11:33;;;;;;;25.67;21.00;;;13.30;99.90;;;;;;5044266;28;20218;-65
2021/05/28 06:13:58;;;;;;;24.83;20.00;;;13.60;99.90;;;;;;5032833;28;20195;-66
2021/05/28 06:16:24;;;;;;;23.77;20.33;;;13.90;99.90;;;;;;5038374;28;20174;-67
2021/05/28 06:18:50;;;;;;;25.07;20.20;;;14.10;99.90;;;;;;5052822;28;20260;-67
2021/05/28 06:21:15;;;;;;;25.10;21.27;;;14.50;99.90;;;;;;5048510;28;20176;-66
2021/05/28 06:23:42;;;;;;;24.73;20.87;;;14.90;99.90;;;;;;5032433;28;20227;-65
2021/05/28 06:26:08;;;;;;;21.00;18.87;;;15.20;99.90;;;;;;5034651;28;20187;-66
2021/05/28 06:28:33;;;;;;;24.27;20.37;;;15.50;99.90;;;;;;5052508;28;20185;-67
2021/05/28 06:30:59;;;;;;;27.50;20.53;;;15.50;99.90;;;;;;5051922;28;20270;-66
2021/05/28 06:33:24;;;;;;;26.80;20.43;;;15.70;99.90;;;;;;5052391;28;20213;-66
2021/05/28 06:35:50;;;;;;;22.43;20.23;;;15.70;99.90;;;;;;5052933;28;20175;-67
2021/05/28 06:38:16;;;;;;;21.97;19.63;;;15.80;99.90;;;;;;5033635;28;20183;-65
2021/05/28 06:40:41;;;;;;;22.07;19.80;;;15.60;99.90;;;;;;5031990;28;20176;-64
2021/05/28 06:43:07;;;;;;;22.10;19.90;;;15.90;99.90;;;;;;5049103;28;20206;-64
2021/05/28 06:45:35;;;;;;;22.40;20.13;;;16.40;99.90;;;;;;5052178;28;20633;-65
2021/05/28 06:48:01;;;;;;;27.17;19.77;;;16.80;99.90;;;;;;5045996;28;20206;-64
2021/05/28 06:50:30;;;;;;;24.80;20.50;;;16.90;99.90;;;;;;5051967;28;20221;-65
2021/05/28 06:52:56;;;;;;;22.20;19.90;;;17.10;99.90;;;;;;5037216;28;20294;-65
2021/05/28 06:55:22;;;;;;;23.37;18.10;;;17.20;99.90;;;;;;5032563;28;20588;-65
2021/05/28 06:57:48;;;;;;;21.50;18.57;;;17.40;99.90;;;;;;5044311;28;20218;-64
2021/05/28 07:00:13;;;;;;;24.47;18.70;;;17.80;99.90;;;;;;5051736;28;20216;-64
2021/05/28 07:02:39;;;;;;;22.23;19.90;;;18.30;99.90;;;;;;5047915;28;20231;-65
2021/05/28 07:05:06;;;;;;;21.87;18.83;;;18.90;99.90;;;;;;5033527;28;20579;-65
2021/05/28 07:07:32;;;;;;;22.13;20.03;;;19.20;99.90;;;;;;5051841;28;20305;-64
2021/05/28 07:09:59;;;;;;;24.85;19.17;;;19.60;99.90;;;;;;5050895;28;20614;-65
2021/05/28 07:12:24;;;;;;;18.95;16.98;;;19.80;99.90;;;;;;5031724;28;20681;-65
2021/05/28 07:14:50;;;;;;;18.60;16.70;;;20.10;99.90;;;;;;5031719;28;20168;-65
2021/05/28 07:17:16;;;;;;;20.40;18.30;;;20.50;99.90;;;;;;5050466;28;20237;-63
2021/05/28 07:19:42;;;;;;;19.65;17.80;;;21.10;99.90;;;;;;5045617;28;20257;-66
2021/05/28 07:22:07;;;;;;;19.55;17.35;;;21.40;99.90;;;;;;5032748;28;20321;-65
2021/05/28 07:24:33;;;;;;;20.13;18.00;;;22.00;99.90;;;;;;5031403;28;20175;-65
2021/05/28 07:26:59;;;;;;;18.92;16.98;;;22.70;99.90;;;;;;5031638;28;20187;-63
2021/05/28 07:29:25;;;;;;;19.67;17.55;;;23.30;99.90;;;;;;5030950;28;20175;-65
2021/05/28 07:31:51;;;;;;;19.15;17.38;;;23.90;99.90;;;;;;5030851;28;20197;-67
2021/05/28 07:34:16;;;;;;;22.63;20.50;;;24.40;99.90;;;;;;5031652;28;20167;-64
2021/05/28 07:36:42;;;;;;;19.88;18.08;;;24.00;99.90;;;;;;5031308;28;20625;-64
2021/05/28 07:39:08;;;;;;;21.98;19.45;;;23.70;99.90;;;;;;5031681;28;20172;-65
2021/05/28 07:41:36;;;;;;;22.08;19.98;;;23.90;99.90;;;;;;5031114;28;20255;-65
2021/05/28 07:44:02;;;;;;;20.40;18.08;;;24.10;99.90;;;;;;5031164;28;20477;-64
2021/05/28 07:46:27;;;;;;;22.27;19.17;;;23.70;99.90;;;;;;5031757;28;20179;-66
2021/05/28 07:48:53;;;;;;;19.05;16.70;;;23.20;99.90;;;;;;5030167;28;20171;-64
2021/05/28 07:51:19;;;;;;;19.25;16.80;;;22.70;99.90;;;;;;5031130;28;20656;-65
2021/05/28 07:53:45;;;;;;;17.45;15.68;;;22.30;99.90;;;;;;5030938;28;20203;-65
2021/05/28 07:56:10;;;;;;;18.98;17.02;;;21.80;99.90;;;;;;5031221;28;20596;-65
2021/05/28 07:58:36;;;;;;;19.10;17.13;;;21.30;99.90;;;;;;5031260;28;20220;-66
2021/05/28 08:01:02;;;;;;;20.37;18.20;;;20.90;99.90;;;;;;5031213;28;20212;-64
2021/05/28 08:03:28;;;;;;;19.03;17.13;;;20.30;99.90;;;;;;5031254;28;20236;-65
2021/05/28 08:05:54;;;;;;;19.70;17.67;;;20.00;99.90;;;;;;5030842;28;20171;-64
2021/05/28 08:08:21;;;;;;;17.60;14.77;;;20.80;99.90;;;;;;5031301;28;20175;-65
2021/05/28 08:10:48;;;;;;;17.02;14.27;;;21.70;99.90;;;;;;5030688;28;20175;-65
2021/05/28 08:13:14;;;;;;;19.88;15.27;;;22.50;99.90;;;;;;5031009;28;20210;-65
2021/05/28 08:15:41;;;;;;;17.77;15.95;;;22.80;99.90;;;;;;5031066;28;20159;-64
2021/05/28 08:18:06;;;;;;;17.10;15.52;;;23.10;99.90;;;;;;5031018;28;20231;-65
2021/05/28 08:20:32;;;;;;;16.40;14.48;;;23.00;99.90;;;;;;5030772;28;20168;-65
2021/05/28 08:22:59;;;;;;;15.95;14.35;;;22.40;99.90;;;;;;5031003;28;20751;-65
2021/05/28 08:25:28;;;;;;;17.15;14.52;;;21.90;99.90;;;;;;5031228;28;20168;-66
2021/05/28 08:27:55;;;;;;;14.60;12.98;;;22.60;99.90;;;;;;5030951;28;20176;-65
2021/05/28 08:30:22;;;;;;;15.00;13.45;;;23.40;99.90;;;;;;5029993;28;20172;-65
2021/05/28 08:32:48;;;;;;;15.45;13.93;;;24.10;99.90;;;;;;5030659;28;20211;-66
2021/05/28 08:35:15;;;;;;;16.23;14.63;;;24.90;99.90;;;;;;5034005;28;20617;-65
2021/05/28 08:37:41;;;;;;;16.60;15.10;;;25.50;99.90;;;;;;5034644;28;20171;-65
2021/05/28 08:40:07;;;;;;;15.75;14.15;;;24.80;99.90;;;;;;5034302;28;20167;-64
2021/05/28 08:42:34;;;;;;;15.43;13.77;;;24.00;99.90;;;;;;5034577;28;20565;-66
2021/05/28 08:45:00;;;;;;;18.67;16.70;;;23.60;99.90;;;;;;5034674;28;20178;-65
2021/05/28 08:47:26;;;;;;;17.73;15.93;;;23.80;99.90;;;;;;5034594;28;20172;-65
2021/05/28 08:49:53;;;;;;;18.25;15.93;;;23.10;99.90;;;;;;5033451;28;20188;-65
2021/05/28 08:52:23;;;;;;;17.67;15.77;;;22.60;99.90;;;;;;5034303;28;20218;-65
2021/05/28 08:54:49;;;;;;;19.70;17.90;;;22.30;99.90;;;;;;5034356;28;20176;-65
2021/05/28 08:57:18;;;;;;;19.20;17.00;;;21.50;99.90;;;;;;5034529;28;20174;-65
2021/05/28 08:59:44;;;;;;;18.60;16.42;;;21.10;99.90;;;;;;5033964;28;20187;-67
2021/05/28 09:02:35;;;;;;;16.75;14.93;;;21.40;99.90;;;;;;5034159;28;20278;-64
2021/05/28 09:05:23;;;;;;;15.93;13.68;;;21.90;99.90;;;;;;5034122;28;20515;-64
2021/05/28 09:07:59;;;;;;;16.15;13.43;;;23.10;99.90;;;;;;5034136;28;20173;-66
2021/05/28 09:10:36;;;;;;;16.05;14.43;;;24.30;99.90;;;;;;5033909;28;20180;-65
2021/05/28 09:13:21;;;;;;;15.15;13.60;;;25.10;99.90;;;;;;5033989;28;20704;-65
2021/05/28 09:15:49;;;;;;;17.15;15.45;;;25.70;99.90;;;;;;5033954;28;20198;-66
2021/05/28 09:18:15;;;;;;;16.60;14.32;;;25.70;99.90;;;;;;5034210;28;20182;-66
2021/05/28 09:20:47;;;;;;;19.23;17.38;;;25.60;99.90;;;;;;5033558;28;20549;-64
2021/05/28 09:23:18;;;;;;;17.70;15.85;;;24.90;99.90;;;;;;5033890;28;20226;-66
2021/05/28 09:26:04;;;;;;;18.67;16.70;;;23.70;99.90;;;;;;5033804;28;20221;-64
2021/05/28 09:28:44;;;;;;;17.27;15.02;;;22.90;99.90;;;;;;5033050;28;20176;-65
2021/05/28 09:31:16;;;;;;;16.38;14.68;;;22.60;99.90;;;;;;5033603;28;20233;-65
2021/05/28 09:33:47;;;;;;;17.70;15.80;;;22.50;99.90;;;;;;5033811;28;20286;-65
2021/05/28 09:36:19;;;;;;;15.40;13.88;;;22.40;99.90;;;;;;5033504;28;20168;-64
2021/05/28 09:39:11;;;;;;;15.13;13.73;;;22.40;99.90;;;;;;5033789;28;20769;-65
2021/05/28 09:41:37;;;;;;;15.55;13.95;;;22.10;99.90;;;;;;5033318;28;20167;-65
2021/05/28 09:44:23;;;;;;;15.38;13.80;;;22.30;99.90;;;;;;5033366;28;20199;-64
2021/05/28 09:47:19;;;;;;;19.30;16.55;;;23.00;99.90;;;;;;5032609;28;20613;-65
2021/05/28 09:49:50;;;;;;;17.73;15.88;;;23.60;99.90;;;;;;5031559;28;20196;-65
2021/05/28 09:52:29;;;;;;;19.67;17.58;;;24.10;99.90;;;;;;5033253;28;20199;-65
2021/05/28 09:55:12;;;;;;;18.80;16.80;;;23.90;99.90;;;;;;5033277;28;20691;-65
2021/05/28 09:57:45;;;;;;;16.33;14.82;;;23.30;99.90;;;;;;5033101;28;20518;-65
2021/05/28 10:00:34;;;;;;;16.98;15.38;;;23.40;99.90;;;;;;5032858;28;20588;-65
2021/05/28 10:03:25;;;;;;;16.05;14.45;;;23.40;99.90;;;;;;5044117;28;20206;-65
2021/05/28 10:05:53;;;;;;;15.57;14.18;;;22.80;99.90;;;;;;5033277;28;20194;-65
2021/05/28 10:08:23;;;;;;;14.70;13.30;;;23.10;99.90;;;;;;5049631;28;20228;-65
2021/05/28 10:10:51;;;;;;;14.15;12.85;;;23.70;99.90;;;;;;5052503;28;20270;-64
2021/05/28 10:13:19;;;;;;;15.25;13.60;;;24.10;99.90;;;;;;5052872;28;20198;-65
2021/05/28 10:15:47;;;;;;;16.73;15.40;;;24.30;99.90;;;;;;5052754;28;20532;-65
2021/05/28 10:18:14;;;;;;;14.75;13.45;;;24.60;99.90;;;;;;5052730;28;20692;-65
2021/05/28 10:20:42;;;;;;;13.90;12.63;;;25.30;99.90;;;;;;5052343;28;20171;-65
2021/05/28 10:23:09;;;;;;;14.80;13.40;;;26.20;99.90;;;;;;5083252;22;20292;-65
2021/05/28 10:25:37;;;;;;;18.27;16.55;;;26.80;99.90;;;;;;5072875;28;20170;-65
2021/05/28 10:28:17;;;;;;;18.10;16.30;;;26.30;99.90;;;;;;5072564;28;20174;-65
2021/05/28 10:30:44;;;;;;;17.80;16.00;;;25.80;99.90;;;;;;5071246;28;20169;-65
2021/05/28 10:33:27;;;;;;;17.92;15.88;;;25.60;99.90;;;;;;5072307;28;20214;-65
2021/05/28 10:35:56;;;;;;;18.63;16.85;;;25.50;99.90;;;;;;5072443;28;20170;-65
2021/05/28 10:38:33;;;;;;;16.90;15.32;;;25.30;99.90;;;;;;5072381;28;20185;-65
2021/05/28 10:41:07;;;;;;;14.90;13.60;;;25.20;99.90;;;;;;5071912;28;20170;-65
2021/05/28 10:43:38;;;;;;;15.60;14.15;;;25.40;99.90;;;;;;5072198;28;20674;-65
2021/05/28 10:46:07;;;;;;;15.80;13.45;;;25.70;99.90;;;;;;5072144;28;20639;-65
2021/05/28 10:48:39;;;;;;;15.60;13.93;;;25.90;99.90;;;;;;5072251;28;20178;-65
2021/05/28 10:51:13;;;;;;;15.90;14.45;;;25.60;99.90;;;;;;5071857;28;20531;-65
2021/05/28 10:53:52;;;;;;;14.48;12.95;;;25.40;99.90;;;;;;5071794;28;20280;-65
2021/05/28 10:56:28;;;;;;;14.35;13.15;;;25.50;99.90;;;;;;5072024;28;20173;-65
2021/05/28 10:58:56;;;;;;;16.45;14.75;;;25.70;99.90;;;;;;5071868;28;20177;-65
2021/05/28 11:01:31;;;;;;;20.45;18.65;;;25.70;99.90;;;;;;5071475;28;20168;-67
2021/05/28 11:03:58;;;;;;;21.23;19.20;;;25.70;99.90;;;;;;5071567;28;20197;-65
2021/05/28 11:06:23;;;;;;;22.02;18.45;;;25.60;99.90;;;;;;5071833;28;20700;-65
2021/05/28 11:08:51;;;;;;;20.88;17.50;;;25.80;99.90;;;;;;5071536;28;20780;-65
2021/05/28 11:11:35;;;;;;;21.55;19.60;;;26.30;99.90;;;;;;5070875;28;20204;-65
2021/05/28 11:14:05;;;;;;;22.67;16.13;;;25.80;99.90;;;;;;5071270;28;20206;-65
2021/05/28 11:16:48;;;;;;;18.95;17.05;;;25.40;99.90;;;;;;5061007;28;20175;-65
2021/05/28 11:19:27;;;;;;;18.45;16.83;;;24.90;99.90;;;;;;5051604;28;20627;-65
2021/05/28 11:22:33;;;;;;;18.20;16.52;;;25.00;99.90;;;;;;5062446;28;20296;-65
2021/05/28 11:25:02;;;;;;;16.33;14.75;;;25.20;99.90;;;;;;5071114;28;20201;-67
2021/05/28 11:27:31;;;;;;;15.45;13.85;;;25.40;99.90;;;;;;5069875;28;20196;-65
2021/05/28 11:30:02;;;;;;;13.70;12.30;;;25.80;99.90;;;;;;5070267;28;20202;-65
2021/05/28 11:32:34;;;;;;;15.18;13.77;;;25.70;99.90;;;;;;5069685;28;20210;-65
2021/05/28 11:35:21;;;;;;;16.00;14.63;;;25.30;99.90;;;;;;5071424;28;20186;-65
2021/05/28 11:38:02;;;;;;;14.70;13.32;;;25.50;99.90;;;;;;5069716;28;20177;-67
2021/05/28 11:40:33;;;;;;;12.90;11.70;;;24.70;99.90;;;;;;5071217;28;20659;-67
2021/05/28 11:43:07;;;;;;;10.75;9.65;;;24.50;99.90;;;;;;5051277;28;20680;-67
2021/05/28 11:45:33;;;;;;;15.68;14.18;;;24.40;99.90;;;;;;5051595;28;20635;-67
2021/05/28 11:47:59;;;;;;;12.52;11.38;;;24.80;99.90;;;;;;5052186;28;20265;-65
2021/05/28 11:50:25;;;;;;;12.38;11.18;;;24.70;99.90;;;;;;5050929;28;20258;-67
2021/05/28 11:53:01;;;;;;;12.68;11.43;;;24.80;99.90;;;;;;5068426;28;20228;-65
2021/05/28 11:55:28;;;;;;;15.52;14.10;;;25.80;99.90;;;;;;5069649;28;20180;-65
2021/05/28 11:58:03;;;;;;;15.82;14.23;;;26.40;99.90;;;;;;5069424;28;20531;-67
2021/05/28 12:00:30;;;;;;;15.93;14.35;;;26.50;99.90;;;;;;5069331;28;20174;-65
2021/05/28 12:02:57;;;;;;;15.73;13.73;;;26.60;99.90;;;;;;5069492;28;20205;-65
2021/05/28 12:05:38;;;;;;;14.68;13.05;;;26.30;99.90;;;;;;5071237;28;20553;-65
2021/05/28 12:08:26;;;;;;;18.38;16.75;;;26.10;99.90;;;;;;5065953;28;20170;-65
2021/05/28 12:10:57;;;;;;;15.43;14.13;;;26.40;99.90;;;;;;5054771;28;20178;-66
2021/05/28 12:13:37;;;;;;;18.60;16.90;;;26.40;99.90;;;;;;5061689;28;20205;-65
2021/05/28 12:16:08;;;;;;;15.20;12.82;;;26.10;99.90;;;;;;5075123;28;20166;-65
2021/05/28 12:18:36;;;;;;;14.95;13.32;;;25.90;99.90;;;;;;5073230;28;20170;-65
2021/05/28 12:21:16;;;;;;;15.25;13.82;;;26.10;99.90;;;;;;5074718;28;20178;-65
2021/05/28 12:23:43;;;;;;;13.52;11.90;;;26.10;99.90;;;;;;5073166;28;20205;-65
2021/05/28 12:26:11;;;;;;;12.20;11.00;;;26.70;99.90;;;;;;5074808;28;20674;-65
2021/05/28 12:28:41;;;;;;;15.45;14.30;;;27.30;99.90;;;;;;5072257;28;20631;-65
2021/05/28 12:31:13;;;;;;;15.45;14.05;;;28.30;99.90;;;;;;5074471;28;20177;-65
2021/05/28 12:33:40;;;;;;;14.98;13.65;;;28.70;99.90;;;;;;5067412;28;20572;-65
2021/05/28 12:36:08;;;;;;;16.45;15.07;;;28.60;99.90;;;;;;5054563;28;20163;-65